Time;durP1;ratioP1;P1;durP2;ratioP2;P2;SDS_P1;SDS_P2;PMS_P1;PMS_P2;Temp;Humidity;BMP_temperature;BMP_pressure;BME280_temperature;BME280_humidity;BME280_pressure;Samples;Min_cycle;Max_cycle;Signal;HPM_P1;HPM_P2
2020/12/14 00:02:12;;;;;;;7.03;5.63;;;;;;;;;;5122185;28;20224;-92
2020/12/14 00:04:40;;;;;;;9.48;7.47;;;;;;;;;;5122091;28;20194;-90
2020/12/14 00:07:07;;;;;;;6.82;5.82;;;;;;;;;;5121584;28;20236;-90
2020/12/14 00:09:34;;;;;;;9.32;5.95;;;;;;;;;;5121592;28;20192;-91
2020/12/14 00:12:02;;;;;;;10.13;6.60;;;;;;;;;;5122155;28;20457;-90
2020/12/14 00:14:29;;;;;;;9.93;7.40;;;;;;;;;;5121718;28;20180;-90
2020/12/14 00:16:56;;;;;;;10.18;6.90;;;;;;;;;;5121449;28;20196;-91
2020/12/14 00:19:24;;;;;;;6.50;5.90;;;;;;;;;;5122036;28;20202;-90
2020/12/14 00:21:53;;;;;;;7.93;6.03;;;;;;;;;;5121908;28;20226;-91
2020/12/14 00:24:20;;;;;;;7.55;5.85;;;;;;;;;;5121171;28;20176;-90
2020/12/14 00:26:47;;;;;;;5.65;4.80;;;;;;;;;;5121335;28;20206;-93
2020/12/14 00:29:14;;;;;;;12.05;6.63;;;;;;;;;;5121006;28;20294;-92
2020/12/14 00:31:41;;;;;;;6.78;5.20;;;;;;;;;;5121163;28;20188;-90
2020/12/14 00:34:08;;;;;;;6.43;4.95;;;;;;;;;;5121208;28;20267;-91
2020/12/14 00:36:36;;;;;;;5.18;4.68;;;;;;;;;;5121718;28;20195;-89
2020/12/14 00:39:03;;;;;;;5.15;4.65;;;;;;;;;;5120278;28;20192;-90
2020/12/14 00:41:30;;;;;;;6.55;5.75;;;;;;;;;;5120748;28;20211;-91
2020/12/14 00:43:57;;;;;;;5.38;4.53;;;;;;;;;;5120770;28;20204;-90
2020/12/14 00:46:24;;;;;;;5.07;4.65;;;;;;;;;;5121098;28;20202;-90
2020/12/14 00:48:51;;;;;;;5.43;4.93;;;;;;;;;;5120444;28;20271;-90
2020/12/14 00:51:24;;;;;;;8.40;5.65;;;;;;;;;;5119805;28;20525;-90
2020/12/14 00:53:52;;;;;;;5.47;4.47;;;;;;;;;;5120470;28;20184;-90
2020/12/14 00:56:19;;;;;;;5.10;4.45;;;;;;;;;;5120584;28;20183;-89
2020/12/14 00:58:46;;;;;;;6.38;4.95;;;;;;;;;;5120489;28;20220;-90
2020/12/14 01:01:14;;;;;;;6.28;5.35;;;;;;;;;;5120247;28;20552;-89
2020/12/14 01:03:41;;;;;;;7.10;4.63;;;;;;;;;;5121229;28;20214;-91
2020/12/14 01:06:08;;;;;;;7.28;5.05;;;;;;;;;;5121316;28;20195;-89
2020/12/14 01:08:35;;;;;;;5.55;4.95;;;;;;;;;;5121093;28;20190;-89
2020/12/14 01:11:04;;;;;;;5.53;4.32;;;;;;;;;;5120479;28;20198;-88
2020/12/14 01:13:31;;;;;;;4.78;4.35;;;;;;;;;;5120387;28;20202;-89
2020/12/14 01:15:58;;;;;;;6.53;4.70;;;;;;;;;;5120336;28;20196;-91
2020/12/14 01:18:25;;;;;;;8.35;4.57;;;;;;;;;;5120932;28;20195;-88
2020/12/14 01:20:52;;;;;;;10.18;6.03;;;;;;;;;;5120476;28;20188;-90
2020/12/14 01:23:20;;;;;;;6.32;4.10;;;;;;;;;;5119710;28;20591;-90
2020/12/14 01:25:47;;;;;;;7.93;5.55;;;;;;;;;;5120747;28;20253;-90
2020/12/14 01:28:15;;;;;;;7.05;4.80;;;;;;;;;;5120081;28;20176;-90
2020/12/14 01:30:41;;;;;;;4.55;4.15;;;;;;;;;;5119613;28;20220;-89
2020/12/14 01:33:09;;;;;;;5.75;4.65;;;;;;;;;;5120328;28;20460;-90
2020/12/14 01:35:36;;;;;;;8.15;5.22;;;;;;;;;;5119852;28;20192;-90
2020/12/14 01:38:04;;;;;;;6.85;4.57;;;;;;;;;;5120247;28;20188;-87
2020/12/14 01:40:31;;;;;;;6.10;4.97;;;;;;;;;;5119860;28;20287;-89
2020/12/14 01:42:58;;;;;;;6.55;4.75;;;;;;;;;;5119674;28;20211;-89
2020/12/14 01:45:26;;;;;;;6.13;4.40;;;;;;;;;;5119339;28;20214;-88
2020/12/14 01:47:54;;;;;;;7.35;5.05;;;;;;;;;;5119767;28;20196;-89
2020/12/14 01:50:21;;;;;;;6.20;4.18;;;;;;;;;;5119987;28;20191;-89
2020/12/14 01:52:48;;;;;;;8.52;5.15;;;;;;;;;;5120217;28;20199;-90
2020/12/14 01:55:18;;;;;;;5.03;4.13;;;;;;;;;;5119208;28;20194;-89
2020/12/14 01:57:46;;;;;;;6.97;4.43;;;;;;;;;;5119488;28;20206;-90
2020/12/14 02:00:13;;;;;;;5.55;5.00;;;;;;;;;;5119280;28;20252;-89
2020/12/14 02:02:41;;;;;;;5.13;4.60;;;;;;;;;;5118806;28;20229;-89
2020/12/14 02:05:08;;;;;;;5.47;4.97;;;;;;;;;;5118881;28;20184;-91
2020/12/14 02:07:35;;;;;;;7.22;4.78;;;;;;;;;;5118903;28;20200;-89
2020/12/14 02:10:02;;;;;;;7.18;4.68;;;;;;;;;;5119218;28;20498;-89
2020/12/14 02:12:29;;;;;;;9.00;5.03;;;;;;;;;;5118966;28;20186;-91
2020/12/14 02:14:58;;;;;;;9.45;5.72;;;;;;;;;;5119575;28;20217;-90
2020/12/14 02:17:26;;;;;;;4.93;4.43;;;;;;;;;;5119023;28;20202;-93
2020/12/14 02:19:55;;;;;;;6.65;4.95;;;;;;;;;;5119149;28;20188;-90
2020/12/14 02:22:23;;;;;;;5.03;4.47;;;;;;;;;;5119562;28;20537;-90
2020/12/14 02:24:55;;;;;;;9.27;5.32;;;;;;;;;;5119816;28;20191;-89
2020/12/14 02:27:23;;;;;;;4.80;4.32;;;;;;;;;;5119002;28;20556;-90
2020/12/14 02:29:50;;;;;;;6.32;5.45;;;;;;;;;;5118873;28;20231;-90
2020/12/14 02:32:19;;;;;;;5.95;5.35;;;;;;;;;;5118992;28;20587;-92
2020/12/14 02:34:47;;;;;;;7.75;4.53;;;;;;;;;;5118900;28;20214;-90
2020/12/14 02:37:17;;;;;;;4.65;3.97;;;;;;;;;;5119179;28;20210;-89
2020/12/14 02:39:45;;;;;;;4.43;4.03;;;;;;;;;;5118847;28;20447;-89
2020/12/14 02:42:14;;;;;;;5.85;4.20;;;;;;;;;;5119025;28;20192;-89
2020/12/14 02:44:42;;;;;;;4.68;4.28;;;;;;;;;;5118951;28;20215;-89
2020/12/14 02:47:09;;;;;;;7.20;5.35;;;;;;;;;;5119494;28;20475;-90
2020/12/14 02:49:38;;;;;;;9.07;5.22;;;;;;;;;;5118792;28;20188;-90
2020/12/14 02:52:06;;;;;;;4.90;4.45;;;;;;;;;;5118973;28;20195;-88
2020/12/14 02:54:34;;;;;;;5.47;4.30;;;;;;;;;;5118597;28;20200;-89
2020/12/14 02:57:01;;;;;;;6.78;5.07;;;;;;;;;;5119245;28;20210;-88
2020/12/14 02:59:29;;;;;;;4.40;4.00;;;;;;;;;;5118881;28;20223;-88
2020/12/14 03:01:57;;;;;;;5.45;4.90;;;;;;;;;;5119005;28;20200;-88
2020/12/14 03:04:24;;;;;;;5.13;4.72;;;;;;;;;;5118878;28;20495;-89
2020/12/14 03:06:51;;;;;;;7.15;5.55;;;;;;;;;;5119018;28;20203;-89
2020/12/14 03:09:21;;;;;;;5.57;4.07;;;;;;;;;;5119043;28;20199;-88
2020/12/14 03:11:49;;;;;;;5.65;5.13;;;;;;;;;;5119464;28;20204;-91
2020/12/14 03:14:17;;;;;;;5.07;4.63;;;;;;;;;;5119132;28;20196;-91
2020/12/14 03:16:46;;;;;;;5.35;4.85;;;;;;;;;;5122427;28;20456;-89
2020/12/14 03:19:13;;;;;;;5.47;4.55;;;;;;;;;;5122906;28;20469;-89
2020/12/14 03:21:40;;;;;;;5.90;4.72;;;;;;;;;;5122132;28;20429;-91
2020/12/14 03:24:07;;;;;;;3.90;3.55;;;;;;;;;;5123115;28;20230;-90
2020/12/14 03:26:34;;;;;;;4.15;3.75;;;;;;;;;;5122506;28;20560;-88
2020/12/14 03:29:02;;;;;;;6.03;4.50;;;;;;;;;;5122567;28;20489;-89
2020/12/14 03:31:29;;;;;;;4.18;3.78;;;;;;;;;;5121722;28;20241;-89
2020/12/14 03:33:57;;;;;;;9.98;3.50;;;;;;;;;;5122211;28;20184;-89
2020/12/14 03:36:25;;;;;;;6.53;4.18;;;;;;;;;;5122040;28;20191;-89
2020/12/14 03:38:53;;;;;;;4.05;3.65;;;;;;;;;;5122726;28;20487;-89
2020/12/14 03:41:21;;;;;;;5.22;4.45;;;;;;;;;;5122836;28;20497;-89
2020/12/14 03:43:48;;;;;;;4.10;3.70;;;;;;;;;;5122325;28;20524;-91
2020/12/14 03:46:17;;;;;;;4.18;3.83;;;;;;;;;;5122459;28;20199;-92
2020/12/14 03:48:44;;;;;;;3.83;3.53;;;;;;;;;;5121964;28;20210;-92
2020/12/14 03:51:13;;;;;;;3.80;3.40;;;;;;;;;;5122220;28;20196;-91
2020/12/14 03:53:41;;;;;;;5.30;4.80;;;;;;;;;;5122266;28;20206;-92
2020/12/14 03:56:08;;;;;;;4.85;4.10;;;;;;;;;;5122106;28;20203;-91
2020/12/14 03:58:35;;;;;;;5.03;4.53;;;;;;;;;;5122204;28;20223;-92
2020/12/14 04:01:02;;;;;;;5.30;4.25;;;;;;;;;;5121416;28;20196;-90
2020/12/14 04:03:29;;;;;;;4.57;4.15;;;;;;;;;;5122140;28;20220;-93
2020/12/14 04:05:56;;;;;;;4.93;3.95;;;;;;;;;;5122317;28;20275;-90
2020/12/14 04:08:24;;;;;;;5.88;5.25;;;;;;;;;;5122333;28;20548;-92
2020/12/14 04:10:51;;;;;;;4.80;4.35;;;;;;;;;;5121641;28;20191;-94
2020/12/14 04:13:18;;;;;;;5.03;4.50;;;;;;;;;;5122179;28;20275;-94
2020/12/14 04:15:44;;;;;;;4.63;4.00;;;;;;;;;;5121833;28;20191;-90
2020/12/14 04:18:11;;;;;;;4.75;4.32;;;;;;;;;;5121786;28;20196;-90
2020/12/14 04:20:39;;;;;;;4.30;4.00;;;;;;;;;;5121325;28;20191;-90
2020/12/14 04:23:06;;;;;;;4.32;3.65;;;;;;;;;;5121903;28;20279;-90
2020/12/14 04:25:33;;;;;;;4.10;3.80;;;;;;;;;;5121180;28;20198;-90
2020/12/14 04:28:00;;;;;;;4.45;3.92;;;;;;;;;;5121293;28;20203;-90
2020/12/14 04:30:28;;;;;;;3.97;3.50;;;;;;;;;;5120838;28;20510;-90
2020/12/14 04:32:57;;;;;;;5.35;3.60;;;;;;;;;;5121005;28;20203;-91
2020/12/14 04:35:24;;;;;;;3.63;3.33;;;;;;;;;;5121740;28;20196;-89
2020/12/14 04:37:51;;;;;;;6.28;4.50;;;;;;;;;;5120763;28;20270;-89
2020/12/14 04:40:18;;;;;;;4.40;3.22;;;;;;;;;;5120838;28;20536;-92
2020/12/14 04:42:46;;;;;;;3.78;3.40;;;;;;;;;;5120808;28;20199;-89
2020/12/14 04:45:13;;;;;;;3.97;3.55;;;;;;;;;;5121033;28;20226;-92
2020/12/14 04:47:40;;;;;;;4.55;4.15;;;;;;;;;;5120595;28;20475;-88
2020/12/14 04:50:07;;;;;;;3.60;3.30;;;;;;;;;;5120748;28;20180;-88
2020/12/14 04:52:36;;;;;;;4.07;3.55;;;;;;;;;;5120533;28;20184;-88
2020/12/14 04:55:04;;;;;;;3.78;3.45;;;;;;;;;;5120571;28;20198;-88
2020/12/14 04:57:33;;;;;;;4.53;3.90;;;;;;;;;;5120523;28;20194;-90
2020/12/14 05:00:00;;;;;;;4.55;3.45;;;;;;;;;;5120533;28;20224;-89
2020/12/14 05:02:27;;;;;;;4.13;3.42;;;;;;;;;;5120207;28;20533;-90
2020/12/14 05:04:54;;;;;;;3.67;3.35;;;;;;;;;;5120605;28;20604;-89
2020/12/14 05:07:41;;;;;;;4.03;3.30;;;;;;;;;;5120280;28;20184;-88
2020/12/14 05:10:08;;;;;;;3.35;2.97;;;;;;;;;;5120987;28;20213;-88
2020/12/14 05:12:40;;;;;;;4.47;3.35;;;;;;;;;;5120084;28;20173;-91
2020/12/14 05:15:26;;;;;;;5.63;3.20;;;;;;;;;;5120316;28;20480;-91
2020/12/14 05:18:07;;;;;;;5.50;3.95;;;;;;;;;;5119966;28;20210;-90
2020/12/14 05:20:35;;;;;;;3.15;2.92;;;;;;;;;;5120938;28;20194;-90
2020/12/14 05:23:03;;;;;;;3.97;3.67;;;;;;;;;;5120743;28;20226;-90
2020/12/14 05:25:31;;;;;;;4.47;4.07;;;;;;;;;;5119967;28;20230;-90
2020/12/14 05:28:11;;;;;;;4.03;3.63;;;;;;;;;;5120115;28;20203;-90
2020/12/14 05:30:42;;;;;;;5.55;3.42;;;;;;;;;;5120248;28;20223;-89
2020/12/14 05:33:11;;;;;;;4.60;3.50;;;;;;;;;;5119803;28;20560;-90
2020/12/14 05:35:40;;;;;;;3.80;3.05;;;;;;;;;;5120803;28;20204;-88
2020/12/14 05:38:15;;;;;;;3.45;3.13;;;;;;;;;;5119796;28;20192;-89
2020/12/14 05:40:44;;;;;;;4.35;3.45;;;;;;;;;;5119507;28;20264;-89
2020/12/14 05:43:13;;;;;;;4.20;2.90;;;;;;;;;;5120403;28;20195;-90
2020/12/14 05:45:42;;;;;;;4.43;2.30;;;;;;;;;;5119727;28;20216;-91
2020/12/14 05:48:33;;;;;;;4.40;3.20;;;;;;;;;;5119837;28;20283;-93
2020/12/14 05:51:02;;;;;;;4.40;2.60;;;;;;;;;;5120099;28;20203;-92
2020/12/14 05:53:36;;;;;;;2.80;2.60;;;;;;;;;;5120617;28;20282;-94
2020/12/14 05:56:05;;;;;;;4.43;3.15;;;;;;;;;;5119366;28;20560;-91
2020/12/14 05:58:34;;;;;;;4.13;3.55;;;;;;;;;;5120132;28;20243;-93
2020/12/14 06:01:05;;;;;;;4.43;2.53;;;;;;;;;;5119780;28;20540;-92
2020/12/14 06:03:32;;;;;;;2.60;2.40;;;;;;;;;;5120183;28;20279;-92
2020/12/14 06:06:01;;;;;;;3.42;2.58;;;;;;;;;;5119293;28;20219;-92
2020/12/14 06:09:06;;;;;;;3.25;2.95;;;;;;;;;;5119795;28;20314;-92
2020/12/14 06:11:40;;;;;;;5.43;3.50;;;;;;;;;;5119164;28;20195;-89
2020/12/14 06:14:09;;;;;;;3.33;2.97;;;;;;;;;;5119977;28;20203;-90
2020/12/14 06:16:39;;;;;;;3.22;2.92;;;;;;;;;;5119404;28;20282;-91
2020/12/14 06:19:06;;;;;;;3.97;2.88;;;;;;;;;;5119528;28;20196;-91
2020/12/14 06:21:37;;;;;;;3.35;2.67;;;;;;;;;;5119319;28;20278;-90
2020/12/14 06:24:06;;;;;;;2.53;2.33;;;;;;;;;;5119612;28;20203;-92
2020/12/14 06:26:36;;;;;;;3.97;2.45;;;;;;;;;;5119895;28;20202;-93
2020/12/14 06:29:03;;;;;;;3.78;1.90;;;;;;;;;;5122111;28;20229;-93
2020/12/14 06:31:36;;;;;;;3.92;2.88;;;;;;;;;;5118836;28;20233;-90
2020/12/14 06:34:05;;;;;;;3.10;2.05;;;;;;;;;;5120987;28;20191;-88
2020/12/14 06:36:39;;;;;;;3.97;2.63;;;;;;;;;;5119236;28;20192;-90
2020/12/14 06:39:28;;;;;;;3.00;2.10;;;;;;;;;;5119508;28;20477;-89
2020/12/14 06:42:21;;;;;;;2.75;2.50;;;;;;;;;;5119377;28;20200;-91
2020/12/14 06:45:11;;;;;;;3.83;3.05;;;;;;;;;;5119057;28;20196;-92
2020/12/14 06:47:53;;;;;;;3.22;2.58;;;;;;;;;;5119268;28;20205;-89
2020/12/14 06:50:32;;;;;;;3.63;2.20;;;;;;;;;;5122363;28;20205;-87
2020/12/14 06:53:00;;;;;;;2.80;2.50;;;;;;;;;;5122867;28;20212;-86
2020/12/14 06:55:47;;;;;;;5.60;3.80;;;;;;;;;;5122791;28;20184;-88
2020/12/14 06:58:34;;;;;;;13.07;3.55;;;;;;;;;;5122695;28;20180;-86
2020/12/14 07:01:01;;;;;;;4.43;3.80;;;;;;;;;;5122330;28;20195;-87
2020/12/14 07:03:36;;;;;;;3.60;2.58;;;;;;;;;;5122448;28;20183;-87
2020/12/14 07:06:05;;;;;;;3.83;3.28;;;;;;;;;;5123118;28;20227;-88
2020/12/14 07:08:41;;;;;;;3.55;2.70;;;;;;;;;;5122370;28;20560;-91
2020/12/14 07:11:16;;;;;;;3.25;2.90;;;;;;;;;;5123137;28;20195;-89
2020/12/14 07:13:44;;;;;;;3.42;2.55;;;;;;;;;;5122273;28;20188;-90
2020/12/14 07:16:13;;;;;;;3.30;2.78;;;;;;;;;;5122451;28;20440;-90
2020/12/14 07:18:42;;;;;;;3.60;3.13;;;;;;;;;;5122185;28;20553;-88
2020/12/14 07:21:12;;;;;;;4.13;3.40;;;;;;;;;;5122436;28;20184;-88
2020/12/14 07:23:41;;;;;;;2.50;2.30;;;;;;;;;;5122095;28;20187;-89
2020/12/14 07:26:10;;;;;;;2.83;2.53;;;;;;;;;;5122926;28;20234;-91
2020/12/14 07:28:44;;;;;;;3.70;2.65;;;;;;;;;;5122470;28;20238;-88
2020/12/14 07:31:17;;;;;;;3.08;2.80;;;;;;;;;;5122030;28;20219;-90
2020/12/14 07:33:54;;;;;;;6.07;2.97;;;;;;;;;;5122297;28;20285;-90
2020/12/14 07:36:21;;;;;;;3.95;3.17;;;;;;;;;;5122350;28;20195;-88
2020/12/14 07:38:51;;;;;;;5.07;3.30;;;;;;;;;;5122245;28;20188;-89
2020/12/14 07:41:19;;;;;;;3.70;2.63;;;;;;;;;;5121696;28;20223;-89
2020/12/14 07:43:49;;;;;;;4.90;3.25;;;;;;;;;;5122682;28;20203;-89
2020/12/14 07:46:28;;;;;;;2.60;2.40;;;;;;;;;;5121908;28;20219;-88
2020/12/14 07:48:59;;;;;;;6.32;3.03;;;;;;;;;;5121481;28;20180;-89
2020/12/14 07:51:27;;;;;;;3.78;3.03;;;;;;;;;;5122260;28;20548;-88
2020/12/14 07:54:02;;;;;;;4.38;2.63;;;;;;;;;;5122234;28;20191;-88
2020/12/14 07:56:29;;;;;;;4.65;3.28;;;;;;;;;;5121733;28;20187;-89
2020/12/14 07:58:56;;;;;;;3.65;3.15;;;;;;;;;;5069700;28;20222;-87
2020/12/14 08:01:23;;;;;;;3.78;2.80;;;;;;;;;;5121125;28;20494;-87
2020/12/14 08:03:50;;;;;;;6.45;3.58;;;;;;;;;;5121513;28;20184;-88
2020/12/14 08:06:19;;;;;;;6.68;3.45;;;;;;;;;;5121558;28;20472;-89
2020/12/14 08:08:50;;;;;;;3.50;3.20;;;;;;;;;;5121581;28;20187;-90
2020/12/14 08:11:18;;;;;;;3.97;3.58;;;;;;;;;;5121501;28;20184;-88
2020/12/14 08:13:50;;;;;;;6.47;2.67;;;;;;;;;;5121426;28;20192;-88
2020/12/14 08:16:19;;;;;;;4.93;3.88;;;;;;;;;;5121347;28;20180;-88
2020/12/14 08:18:48;;;;;;;3.47;3.17;;;;;;;;;;5120948;28;20210;-90
2020/12/14 08:21:24;;;;;;;6.22;3.55;;;;;;;;;;5121182;28;20187;-90
2020/12/14 08:23:53;;;;;;;2.65;2.45;;;;;;;;;;5120819;28;20271;-90
2020/12/14 08:26:25;;;;;;;3.22;2.92;;;;;;;;;;5120945;28;20215;-88
2020/12/14 08:29:02;;;;;;;2.70;2.50;;;;;;;;;;5120800;28;20212;-88
2020/12/14 08:31:29;;;;;;;3.63;2.83;;;;;;;;;;5120659;28;20227;-89
2020/12/14 08:33:57;;;;;;;3.20;2.90;;;;;;;;;;5121113;28;20568;-89
2020/12/14 08:36:26;;;;;;;2.55;2.35;;;;;;;;;;5121031;28;20484;-87
2020/12/14 08:38:53;;;;;;;4.85;2.80;;;;;;;;;;5120950;28;20188;-89
2020/12/14 08:41:22;;;;;;;3.47;2.80;;;;;;;;;;5120989;28;20188;-88
2020/12/14 08:43:53;;;;;;;3.75;2.58;;;;;;;;;;5121011;28;20549;-89
2020/12/14 08:46:22;;;;;;;3.33;2.92;;;;;;;;;;5121105;28;20219;-88
2020/12/14 08:48:51;;;;;;;2.75;2.53;;;;;;;;;;5120794;28;20456;-88
2020/12/14 08:51:20;;;;;;;3.63;3.17;;;;;;;;;;5120380;28;20180;-89
2020/12/14 08:53:50;;;;;;;4.97;3.00;;;;;;;;;;5120575;28;20194;-89
2020/12/14 08:56:19;;;;;;;3.33;2.72;;;;;;;;;;5120922;28;20180;-89
2020/12/14 08:58:48;;;;;;;3.17;2.88;;;;;;;;;;5120966;28;20215;-89
2020/12/14 09:01:15;;;;;;;4.90;2.90;;;;;;;;;;5120471;28;20452;-89
2020/12/14 09:03:56;;;;;;;2.75;2.55;;;;;;;;;;5120296;28;20261;-88
2020/12/14 09:06:26;;;;;;;3.00;2.70;;;;;;;;;;5120330;28;20208;-88
2020/12/14 09:09:07;;;;;;;3.30;3.00;;;;;;;;;;5120014;28;20567;-90
2020/12/14 09:11:36;;;;;;;3.00;2.80;;;;;;;;;;5120565;28;20179;-89
2020/12/14 09:14:05;;;;;;;3.47;2.42;;;;;;;;;;5119803;28;20190;-91
2020/12/14 09:16:33;;;;;;;4.00;3.38;;;;;;;;;;5120156;28;20560;-89
2020/12/14 09:19:00;;;;;;;3.78;2.40;;;;;;;;;;5120531;28;20449;-88
2020/12/14 09:21:27;;;;;;;2.47;2.28;;;;;;;;;;5120894;28;20214;-89
2020/12/14 09:24:16;;;;;;;3.03;2.42;;;;;;;;;;5120680;28;20194;-89
2020/12/14 09:26:45;;;;;;;2.60;2.40;;;;;;;;;;5119921;28;20464;-91
2020/12/14 09:29:12;;;;;;;3.25;2.28;;;;;;;;;;5119697;28;20230;-88
2020/12/14 09:31:40;;;;;;;3.70;2.92;;;;;;;;;;5120094;28;20217;-89
2020/12/14 09:34:07;;;;;;;2.88;2.65;;;;;;;;;;5119557;28;20180;-88
2020/12/14 09:36:34;;;;;;;2.42;2.22;;;;;;;;;;5119991;28;20195;-89
2020/12/14 09:39:01;;;;;;;3.00;2.45;;;;;;;;;;5119576;28;20184;-87
2020/12/14 09:41:33;;;;;;;2.85;2.65;;;;;;;;;;5119380;28;20545;-89
2020/12/14 09:44:00;;;;;;;2.85;2.65;;;;;;;;;;5119989;28;20176;-88
2020/12/14 09:46:28;;;;;;;2.47;1.88;;;;;;;;;;5119234;28;20200;-87
2020/12/14 09:48:56;;;;;;;2.25;2.10;;;;;;;;;;5119204;28;20191;-88
2020/12/14 09:51:23;;;;;;;2.20;2.00;;;;;;;;;;5119445;28;20176;-87
2020/12/14 09:53:50;;;;;;;2.53;1.92;;;;;;;;;;5119205;28;20183;-86
2020/12/14 09:56:18;;;;;;;2.30;2.10;;;;;;;;;;5119653;28;20657;-89
2020/12/14 09:58:46;;;;;;;2.22;1.98;;;;;;;;;;5119009;28;20212;-88
2020/12/14 10:01:13;;;;;;;3.80;2.28;;;;;;;;;;5119303;28;20199;-89
2020/12/14 10:03:40;;;;;;;1.85;1.75;;;;;;;;;;5119125;28;20445;-89
2020/12/14 10:06:09;;;;;;;2.00;1.80;;;;;;;;;;5119279;28;20486;-88
2020/12/14 10:08:36;;;;;;;2.20;2.00;;;;;;;;;;5119337;28;20183;-89
2020/12/14 10:11:03;;;;;;;2.20;2.00;;;;;;;;;;5119359;28;20176;-89
2020/12/14 10:13:30;;;;;;;4.18;2.42;;;;;;;;;;5118912;28;20238;-88
2020/12/14 10:15:58;;;;;;;3.85;2.13;;;;;;;;;;5119240;28;20188;-88
2020/12/14 10:18:25;;;;;;;3.33;2.28;;;;;;;;;;5119218;28;20180;-86
2020/12/14 10:20:53;;;;;;;2.15;1.95;;;;;;;;;;5119192;28;20461;-88
2020/12/14 10:23:20;;;;;;;2.75;2.10;;;;;;;;;;5119166;28;20291;-89
2020/12/14 10:25:47;;;;;;;2.60;2.40;;;;;;;;;;5118960;28;20176;-89
2020/12/14 10:28:14;;;;;;;2.42;2.22;;;;;;;;;;5118867;28;20172;-87
2020/12/14 10:30:41;;;;;;;3.15;1.90;;;;;;;;;;5118159;28;20241;-89
2020/12/14 10:33:09;;;;;;;3.40;2.60;;;;;;;;;;5118913;28;20191;-89
2020/12/14 10:35:36;;;;;;;2.28;2.08;;;;;;;;;;5118354;28;20210;-88
2020/12/14 10:38:03;;;;;;;2.00;1.80;;;;;;;;;;5119033;28;20172;-88
2020/12/14 10:40:30;;;;;;;2.83;1.90;;;;;;;;;;5118914;28;20187;-87
2020/12/14 10:42:57;;;;;;;1.63;1.50;;;;;;;;;;5118839;28;20579;-88
2020/12/14 10:45:24;;;;;;;2.65;1.95;;;;;;;;;;5118944;28;20461;-88
2020/12/14 10:47:52;;;;;;;2.20;1.90;;;;;;;;;;5118721;28;20223;-88
2020/12/14 10:50:22;;;;;;;2.00;1.80;;;;;;;;;;5118880;28;20536;-87
2020/12/14 10:52:49;;;;;;;2.60;2.05;;;;;;;;;;5119263;28;20203;-89
2020/12/14 10:55:18;;;;;;;4.15;2.22;;;;;;;;;;5118742;28;20188;-89
2020/12/14 10:57:45;;;;;;;2.30;2.10;;;;;;;;;;5119129;28;20192;-88
2020/12/14 11:00:12;;;;;;;2.38;1.80;;;;;;;;;;5118731;28;20215;-87
2020/12/14 11:02:40;;;;;;;1.95;1.75;;;;;;;;;;5118702;28;20598;-87
2020/12/14 11:05:08;;;;;;;1.85;1.70;;;;;;;;;;5118671;28;20237;-87
2020/12/14 11:07:37;;;;;;;3.67;2.10;;;;;;;;;;5118433;28;20204;-89
2020/12/14 11:10:05;;;;;;;2.28;1.85;;;;;;;;;;5118480;28;20184;-88
2020/12/14 11:12:33;;;;;;;2.50;2.08;;;;;;;;;;5118214;28;20184;-88
2020/12/14 11:15:00;;;;;;;1.77;1.45;;;;;;;;;;5118439;28;20184;-88
2020/12/14 11:17:26;;;;;;;2.83;2.40;;;;;;;;;;5118553;28;20192;-88
2020/12/14 11:19:53;;;;;;;2.45;2.08;;;;;;;;;;5118585;28;20199;-88
2020/12/14 11:22:20;;;;;;;1.90;1.80;;;;;;;;;;5118404;28;20215;-88
2020/12/14 11:24:48;;;;;;;3.53;1.52;;;;;;;;;;5117940;28;20580;-86
2020/12/14 11:27:15;;;;;;;1.98;1.58;;;;;;;;;;5118476;28;20230;-89
2020/12/14 11:29:42;;;;;;;2.13;1.92;;;;;;;;;;5118132;28;20215;-89
2020/12/14 11:32:09;;;;;;;1.98;1.88;;;;;;;;;;5118512;28;20176;-89
2020/12/14 11:34:36;;;;;;;2.60;1.98;;;;;;;;;;5118450;28;20183;-89
2020/12/14 11:37:03;;;;;;;2.10;1.90;;;;;;;;;;5119940;28;20228;-89
2020/12/14 11:39:30;;;;;;;3.03;1.92;;;;;;;;;;5122659;28;20223;-87
2020/12/14 11:41:58;;;;;;;1.70;1.60;;;;;;;;;;5121871;28;20249;-89
2020/12/14 11:44:25;;;;;;;1.73;1.58;;;;;;;;;;5121917;28;20176;-88
2020/12/14 11:46:53;;;;;;;1.70;1.60;;;;;;;;;;5121969;28;20580;-89
2020/12/14 11:49:20;;;;;;;5.25;1.67;;;;;;;;;;5121708;28;20180;-88
2020/12/14 11:51:48;;;;;;;2.20;2.00;;;;;;;;;;5122583;28;20214;-89
2020/12/14 11:54:17;;;;;;;2.65;1.60;;;;;;;;;;5122156;28;20176;-87
2020/12/14 11:56:45;;;;;;;1.60;1.50;;;;;;;;;;5121690;28;20184;-88
2020/12/14 11:59:13;;;;;;;2.10;1.67;;;;;;;;;;5121762;28;20219;-88
2020/12/14 12:01:40;;;;;;;1.52;1.40;;;;;;;;;;5121420;28;20181;-88
2020/12/14 12:04:07;;;;;;;1.75;1.50;;;;;;;;;;5121845;28;20275;-89
2020/12/14 12:06:34;;;;;;;4.00;2.25;;;;;;;;;;5121322;28;20652;-89
2020/12/14 12:09:01;;;;;;;2.67;1.77;;;;;;;;;;5121468;28;20575;-87
2020/12/14 12:11:28;;;;;;;2.20;1.80;;;;;;;;;;5122333;28;20200;-87
2020/12/14 12:13:55;;;;;;;1.80;1.65;;;;;;;;;;5122250;28;20443;-89
2020/12/14 12:16:23;;;;;;;3.22;1.63;;;;;;;;;;5121421;28;20187;-90
2020/12/14 12:18:50;;;;;;;1.42;1.20;;;;;;;;;;5121559;28;20436;-89
2020/12/14 12:21:17;;;;;;;1.50;1.40;;;;;;;;;;5120750;28;20232;-89
2020/12/14 12:23:44;;;;;;;1.45;1.35;;;;;;;;;;5120871;28;20206;-90
2020/12/14 12:26:11;;;;;;;1.50;1.10;;;;;;;;;;5121166;28;20176;-89
2020/12/14 12:28:38;;;;;;;1.60;1.50;;;;;;;;;;5120683;28;20220;-88
2020/12/14 12:31:06;;;;;;;2.55;1.50;;;;;;;;;;5120749;28;20232;-89
2020/12/14 12:33:34;;;;;;;2.42;1.50;;;;;;;;;;5121127;28;20195;-90
2020/12/14 12:36:01;;;;;;;1.50;1.40;;;;;;;;;;5120843;28;20193;-90
2020/12/14 12:38:27;;;;;;;1.30;1.30;;;;;;;;;;5121060;28;20460;-89
2020/12/14 12:40:54;;;;;;;1.40;1.30;;;;;;;;;;5120779;28;20172;-90
2020/12/14 12:43:21;;;;;;;1.33;1.23;;;;;;;;;;5120572;28;20184;-90
2020/12/14 12:45:50;;;;;;;1.45;1.30;;;;;;;;;;5121742;28;20449;-91
2020/12/14 12:48:17;;;;;;;1.48;1.38;;;;;;;;;;5121020;28;20247;-90
2020/12/14 12:50:53;;;;;;;3.03;1.48;;;;;;;;;;5120978;28;20196;-88
2020/12/14 12:53:23;;;;;;;1.67;1.33;;;;;;;;;;5120731;28;20262;-87
2020/12/14 12:55:50;;;;;;;1.30;1.20;;;;;;;;;;5069404;28;20557;-90
2020/12/14 12:58:17;;;;;;;1.33;1.23;;;;;;;;;;5120549;28;20195;-90
2020/12/14 13:00:44;;;;;;;1.40;1.30;;;;;;;;;;5121280;28;20210;-91
2020/12/14 13:03:11;;;;;;;1.42;1.33;;;;;;;;;;5121856;28;20195;-92
2020/12/14 13:05:40;;;;;;;1.52;1.25;;;;;;;;;;5120710;28;20267;-93
2020/12/14 13:08:09;;;;;;;1.48;1.38;;;;;;;;;;5120820;28;20365;-94
2020/12/14 13:10:36;;;;;;;1.63;1.33;;;;;;;;;;5121132;28;20279;-93
2020/12/14 13:13:03;;;;;;;1.67;1.17;;;;;;;;;;5120599;28;20210;-93
2020/12/14 13:15:30;;;;;;;1.30;1.20;;;;;;;;;;5120691;28;20198;-93
2020/12/14 13:17:57;;;;;;;1.40;1.30;;;;;;;;;;5121330;28;20238;-92
2020/12/14 13:20:24;;;;;;;1.67;1.50;;;;;;;;;;5119980;28;20540;-93
2020/12/14 13:22:51;;;;;;;1.55;1.25;;;;;;;;;;5120919;28;20195;-94
2020/12/14 13:25:19;;;;;;;1.52;1.42;;;;;;;;;;5120178;28;20176;-93
2020/12/14 13:27:46;;;;;;;1.63;1.52;;;;;;;;;;5120897;28;20211;-93
2020/12/14 13:30:13;;;;;;;1.00;1.00;;;;;;;;;;5120465;28;20243;-92
2020/12/14 13:32:40;;;;;;;1.75;1.00;;;;;;;;;;5121244;28;20196;-93
2020/12/14 13:35:07;;;;;;;1.30;1.20;;;;;;;;;;5121613;28;20271;-92
2020/12/14 13:37:35;;;;;;;1.25;1.23;;;;;;;;;;5120971;28;20195;-94
2020/12/14 13:40:03;;;;;;;2.97;1.67;;;;;;;;;;5121451;28;20283;-93
2020/12/14 13:42:32;;;;;;;1.50;1.40;;;;;;;;;;5120567;28;20206;-91
2020/12/14 13:45:00;;;;;;;1.27;1.17;;;;;;;;;;5120299;28;20188;-92
2020/12/14 13:47:27;;;;;;;1.25;1.17;;;;;;;;;;5120175;28;20247;-95
2020/12/14 13:49:54;;;;;;;1.25;1.15;;;;;;;;;;5120435;28;20210;-92
2020/12/14 13:52:22;;;;;;;1.85;1.55;;;;;;;;;;5119803;28;20195;-93
2020/12/14 13:54:49;;;;;;;1.10;1.10;;;;;;;;;;5120067;28;20191;-93
2020/12/14 13:57:17;;;;;;;1.60;1.50;;;;;;;;;;5120044;28;20202;-93
2020/12/14 13:59:45;;;;;;;1.25;1.20;;;;;;;;;;5119097;28;20219;-91
2020/12/14 14:02:12;;;;;;;2.03;1.60;;;;;;;;;;5120252;28;20196;-92
2020/12/14 14:04:39;;;;;;;2.53;1.63;;;;;;;;;;5120273;28;20191;-93
2020/12/14 14:07:07;;;;;;;5.15;2.00;;;;;;;;;;5119987;28;20199;-91
2020/12/14 14:09:35;;;;;;;2.42;1.75;;;;;;;;;;5119905;28;20203;-93
2020/12/14 14:12:02;;;;;;;3.05;1.60;;;;;;;;;;5119579;28;20230;-92
2020/12/14 14:14:32;;;;;;;1.50;1.40;;;;;;;;;;5120036;28;20200;-92
2020/12/14 14:17:03;;;;;;;1.77;1.67;;;;;;;;;;5120019;28;20203;-94
2020/12/14 14:19:33;;;;;;;1.45;1.20;;;;;;;;;;5119713;28;20275;-92
2020/12/14 14:21:59;;;;;;;3.58;1.75;;;;;;;;;;5119528;28;20227;-91
2020/12/14 14:24:27;;;;;;;3.55;1.90;;;;;;;;;;5118489;28;20214;-93
2020/12/14 14:26:57;;;;;;;1.80;1.50;;;;;;;;;;5119739;28;20207;-94
2020/12/14 14:29:24;;;;;;;3.13;1.50;;;;;;;;;;5118745;28;20591;-93
2020/12/14 14:31:52;;;;;;;3.40;1.83;;;;;;;;;;5119265;28;20198;-92
2020/12/14 14:34:20;;;;;;;1.67;1.58;;;;;;;;;;5119222;28;20500;-92
2020/12/14 14:36:51;;;;;;;2.58;1.50;;;;;;;;;;5119168;28;20438;-90
2020/12/14 14:39:19;;;;;;;1.70;1.60;;;;;;;;;;5119638;28;20294;-93
2020/12/14 14:41:47;;;;;;;1.58;1.48;;;;;;;;;;5119702;28;20474;-94
2020/12/14 14:44:14;;;;;;;2.17;2.00;;;;;;;;;;5119572;28;20274;-93
2020/12/14 14:46:46;;;;;;;1.77;1.67;;;;;;;;;;5118869;28;20275;-94
2020/12/14 14:49:13;;;;;;;1.80;1.70;;;;;;;;;;5118906;28;20212;-93
2020/12/14 14:51:44;;;;;;;2.17;1.70;;;;;;;;;;5119719;28;20199;-93
2020/12/14 14:54:11;;;;;;;1.60;1.50;;;;;;;;;;5119548;28;20192;-94